Time;durP1;ratioP1;P1;durP2;ratioP2;P2;SDS_P1;SDS_P2;PMS_P1;PMS_P2;Temp;Humidity;BMP_temperature;BMP_pressure;BME280_temperature;BME280_humidity;BME280_pressure;Samples;Min_cycle;Max_cycle;Signal;HPM_P1;HPM_P2
2023/10/19 00:00:40;;;;;;;32.70;20.17;;;;;;;5.48;100.00;98843.94;4951416;29;20047;-84
2023/10/19 00:03:06;;;;;;;30.30;20.33;;;;;;;5.44;100.00;98840.63;4951417;29;20499;-84
2023/10/19 00:05:32;;;;;;;31.73;21.45;;;;;;;5.48;100.00;98844.78;4951632;29;20443;-84
2023/10/19 00:08:07;;;;;;;32.72;21.17;;;;;;;5.55;100.00;98849.69;4951412;29;20178;-84
2023/10/19 00:10:34;;;;;;;36.05;20.42;;;;;;;5.46;100.00;98831.06;4951549;29;20070;-84
2023/10/19 00:13:03;;;;;;;34.75;20.65;;;;;;;4.92;100.00;98757.44;4935188;29;20072;-84
2023/10/19 00:15:32;;;;;;;30.73;20.00;;;;;;;5.36;100.00;98814.28;4951445;29;20561;-84
2023/10/19 00:18:05;;;;;;;31.63;21.20;;;;;;;5.50;100.00;98834.38;4951448;29;20028;-84
2023/10/19 00:23:18;;;;;;;34.65;21.73;;;;;;;5.37;100.00;98803.03;4951423;29;20521;-84
2023/10/19 00:25:44;;;;;;;32.90;20.85;;;;;;;5.44;100.00;98814.81;4951435;29;20039;-84
2023/10/19 00:28:12;;;;;;;32.70;20.88;;;;;;;5.42;100.00;98795.09;4951008;29;20051;-84
2023/10/19 00:30:39;;;;;;;34.95;21.08;;;;;;;5.37;100.00;98794.44;4951367;29;20043;-84
2023/10/19 00:33:09;;;;;;;38.03;19.88;;;;;;;5.37;100.00;98787.53;4990256;28;20042;-84
2023/10/19 00:35:36;;;;;;;29.88;19.15;;;;;;;5.26;100.00;98775.03;5011860;28;20384;-84
2023/10/19 00:40:58;;;;;;;31.85;19.95;;;;;;;5.00;100.00;98736.50;4950950;29;20031;-84
2023/10/19 00:43:57;;;;;;;39.43;20.10;;;;;;;5.21;100.00;98758.88;4951221;29;20050;-84
2023/10/19 00:48:58;;;;;;;31.10;19.13;;;;;;;5.26;100.00;98769.03;4951489;29;20039;-84
2023/10/19 00:54:14;;;;;;;30.88;18.77;;;;;;;5.10;100.00;98737.84;4912821;29;20051;-84
2023/10/19 00:56:56;;;;;;;31.52;19.20;;;;;;;4.93;100.00;98711.81;4913040;29;20103;-83
2023/10/19 00:59:24;;;;;;;35.53;20.02;;;;;;;5.03;100.00;98730.38;4931730;29;20040;-84
2023/10/19 01:01:55;;;;;;;33.05;20.45;;;;;;;5.06;100.00;98722.53;4931509;29;20061;-84
2023/10/19 01:04:31;;;;;;;35.50;20.17;;;;;;;5.19;100.00;98732.31;4931941;29;20427;-84
2023/10/19 01:07:21;;;;;;;39.20;24.25;;;;;;;5.13;100.00;98717.03;4931827;29;20114;-84
2023/10/19 01:09:47;;;;;;;34.78;21.35;;;;;;;5.23;100.00;98723.53;4932012;29;20104;-84
2023/10/19 01:17:56;;;;;;;35.67;22.35;;;;;;;4.90;100.00;98693.91;4947238;28;20035;-83
2023/10/19 01:25:34;;;;;;;36.67;22.55;;;;;;;4.92;100.00;98697.25;5011958;28;20041;-83
2023/10/19 01:28:08;;;;;;;35.13;21.02;;;;;;;4.73;100.00;98672.16;5014971;28;20038;-84
2023/10/19 01:30:36;;;;;;;35.90;21.92;;;;;;;4.61;100.00;98635.69;5015128;28;20085;-84
2023/10/19 01:33:02;;;;;;;35.95;22.05;;;;;;;4.91;100.00;98693.81;5014734;28;20111;-84
2023/10/19 01:36:10;;;;;;;35.97;20.48;;;;;;;4.95;100.00;98697.13;5014885;28;20038;-84
2023/10/19 01:38:13;;;;;;;37.15;21.42;;;;;;;4.81;100.00;98671.03;5014497;28;20385;-84
2023/10/19 01:40:45;;;;;;;33.38;21.70;;;;;;;4.89;100.00;98680.16;5014653;28;20038;-84
2023/10/19 01:43:19;;;;;;;31.40;20.10;;;;;;;4.95;100.00;98661.00;5014585;28;20156;-83
2023/10/19 01:45:45;;;;;;;33.78;20.60;;;;;;;5.00;100.00;98665.06;4997117;28;20026;-83
2023/10/19 01:48:12;;;;;;;32.70;20.15;;;;;;;5.01;100.00;98658.16;4996721;28;20037;-83
2023/10/19 01:50:39;;;;;;;36.17;21.52;;;;;;;5.06;100.00;98666.59;5014816;28;20354;-83
2023/10/19 01:53:12;;;;;;;38.50;21.88;;;;;;;4.93;100.00;98643.00;4996837;28;20089;-83
2023/10/19 01:55:38;;;;;;;33.95;21.55;;;;;;;4.79;100.00;98622.06;5014443;28;20475;-83
2023/10/19 01:58:03;;;;;;;28.48;19.73;;;;;;;4.84;100.00;98609.81;5014539;28;20032;-83
2023/10/19 02:00:29;;;;;;;30.90;20.05;;;;;;;4.78;100.00;98592.00;5014567;28;20036;-84
2023/10/19 02:02:54;;;;;;;32.78;21.30;;;;;;;5.10;100.00;98632.03;4996268;28;20022;-84
2023/10/19 02:05:22;;;;;;;33.35;21.00;;;;;;;4.95;100.00;98624.88;4996850;28;20029;-83
2023/10/19 02:07:47;;;;;;;34.22;21.27;;;;;;;5.04;100.00;98627.09;5014261;28;20064;-83
2023/10/19 02:10:12;;;;;;;33.63;20.75;;;;;;;5.03;100.00;98614.25;4996571;28;20157;-83
2023/10/19 02:12:41;;;;;;;36.60;22.48;;;;;;;4.81;100.00;98571.25;5014235;28;20041;-84
2023/10/19 02:15:08;;;;;;;36.17;24.00;;;;;;;4.96;100.00;98605.91;5013976;28;20500;-84
2023/10/19 02:17:33;;;;;;;37.00;23.08;;;;;;;4.71;100.00;98573.34;5013988;28;20025;-84
2023/10/19 02:19:59;;;;;;;35.65;21.83;;;;;;;4.77;100.00;98592.94;4996358;28;20088;-84
2023/10/19 02:22:24;;;;;;;38.00;22.63;;;;;;;4.87;100.00;98612.28;5014089;28;20037;-83
2023/10/19 02:24:49;;;;;;;35.53;22.00;;;;;;;4.89;100.00;98597.59;5014017;28;20514;-83
2023/10/19 02:27:15;;;;;;;33.75;22.20;;;;;;;4.77;100.00;98582.59;5013738;28;20073;-83
2023/10/19 02:29:41;;;;;;;39.22;24.25;;;;;;;4.65;100.00;98565.03;4972314;28;20041;-83
2023/10/19 02:32:07;;;;;;;39.42;23.05;;;;;;;4.87;100.00;98595.97;4972087;28;20039;-83
2023/10/19 02:34:34;;;;;;;38.75;23.70;;;;;;;4.53;100.00;98542.31;4972328;28;20085;-83
2023/10/19 02:37:00;;;;;;;34.67;22.60;;;;;;;4.79;100.00;98573.06;4971815;28;20118;-83
2023/10/19 02:39:28;;;;;;;42.20;25.05;;;;;;;4.73;100.00;98557.84;4972009;28;20042;-83
2023/10/19 02:41:54;;;;;;;38.22;23.60;;;;;;;4.84;100.00;98578.03;4972091;28;20387;-84
2023/10/19 02:44:25;;;;;;;34.08;24.20;;;;;;;4.71;100.00;98564.78;4971954;28;20043;-84
2023/10/19 02:46:53;;;;;;;37.73;23.43;;;;;;;4.81;100.00;98570.44;4972257;28;20042;-83
2023/10/19 02:49:21;;;;;;;47.67;24.33;;;;;;;4.21;100.00;98478.25;4971914;28;20046;-83
2023/10/19 02:51:47;;;;;;;39.00;23.00;;;;;;;4.61;100.00;98535.94;4972051;28;20035;-84
2023/10/19 02:54:22;;;;;;;38.80;24.13;;;;;;;4.79;100.00;98561.91;4971700;28;20102;-83
2023/10/19 02:56:53;;;;;;;37.78;23.45;;;;;;;4.83;100.00;98563.44;4948628;28;20061;-83
2023/10/19 02:59:23;;;;;;;35.40;22.43;;;;;;;4.84;100.00;98554.81;4955397;28;20033;-83
2023/10/19 03:01:53;;;;;;;36.72;23.23;;;;;;;4.49;100.00;98493.44;5011701;28;20324;-83
2023/10/19 03:04:18;;;;;;;43.10;24.50;;;;;;;4.81;100.00;98542.88;4995420;28;20414;-83
2023/10/19 03:06:44;;;;;;;35.65;23.45;;;;;;;4.84;100.00;98554.81;5013188;28;20036;-83
2023/10/19 03:09:20;;;;;;;36.20;24.40;;;;;;;4.75;100.00;98540.53;5012966;28;20120;-83
2023/10/19 03:11:45;;;;;;;46.03;27.25;;;;;;;4.64;100.00;98520.38;5013085;28;20528;-84
2023/10/19 03:14:11;;;;;;;41.33;26.30;;;;;;;4.65;100.00;98531.50;4995342;28;20101;-83
2023/10/19 03:16:41;;;;;;;45.10;27.50;;;;;;;4.63;100.00;98525.56;4995455;28;20022;-83
2023/10/19 03:19:07;;;;;;;43.58;26.70;;;;;;;4.23;100.00;98475.59;5012821;28;20022;-84
2023/10/19 03:21:41;;;;;;;40.28;23.73;;;;;;;4.57;100.00;98516.34;5012911;28;20135;-83
2023/10/19 03:24:06;;;;;;;45.22;25.55;;;;;;;4.61;100.00;98535.13;5012699;28;20462;-83
2023/10/19 03:26:36;;;;;;;42.15;26.00;;;;;;;4.61;100.00;98523.06;5012862;28;20117;-83
2023/10/19 03:29:12;;;;;;;37.33;24.23;;;;;;;4.41;100.00;98489.50;5012819;28;20029;-83
2023/10/19 03:31:43;;;;;;;49.20;27.08;;;;;;;4.66;100.00;98530.59;5012882;28;20272;-83
2023/10/19 03:34:16;;;;;;;40.47;26.13;;;;;;;4.37;100.00;98472.47;4995086;28;20022;-83
2023/10/19 03:36:42;;;;;;;38.00;23.95;;;;;;;4.59;100.00;98511.94;5012583;28;20034;-84
2023/10/19 03:39:12;;;;;;;36.90;24.58;;;;;;;4.60;100.00;98507.66;5012607;28;20037;-83
2023/10/19 03:41:41;;;;;;;41.22;25.17;;;;;;;4.61;100.00;98504.16;4995051;28;20120;-83
2023/10/19 03:44:13;;;;;;;44.53;26.00;;;;;;;4.48;100.00;98484.03;5012500;28;20108;-84
2023/10/19 03:46:39;;;;;;;37.85;24.13;;;;;;;4.62;100.00;98493.78;4994866;28;20436;-83
2023/10/19 03:49:10;;;;;;;40.80;24.50;;;;;;;4.41;100.00;98456.81;5011637;28;20022;-84
2023/10/19 03:54:24;;;;;;;37.22;23.83;;;;;;;4.53;100.00;98463.22;5012479;28;20601;-83
2023/10/19 03:56:50;;;;;;;40.38;24.75;;;;;;;4.40;100.00;98439.69;5012600;28;20389;-84
2023/10/19 03:59:17;;;;;;;36.80;24.30;;;;;;;4.57;100.00;98453.63;5012307;28;20025;-84
2023/10/19 04:01:43;;;;;;;39.50;24.70;;;;;;;4.78;100.00;98493.16;4994526;28;20129;-84
2023/10/19 04:04:09;;;;;;;43.40;26.30;;;;;;;4.64;100.00;98465.38;5012240;28;20110;-84
2023/10/19 04:06:35;;;;;;;40.85;25.75;;;;;;;4.62;100.00;98452.53;5012383;28;20029;-83
2023/10/19 04:09:01;;;;;;;37.78;25.02;;;;;;;4.75;100.00;98469.16;4994821;28;20022;-84
2023/10/19 04:11:32;;;;;;;39.72;24.42;;;;;;;4.78;100.00;98469.94;4994663;28;20065;-84
2023/10/19 04:14:03;;;;;;;42.55;25.65;;;;;;;4.48;100.00;98417.00;5012223;28;20475;-84
2023/10/19 04:16:28;;;;;;;41.27;25.43;;;;;;;4.70;100.00;98458.19;4994810;28;20026;-84
2023/10/19 04:18:54;;;;;;;38.38;25.45;;;;;;;4.70;100.00;98445.31;5012334;28;20779;-84
2023/10/19 04:21:19;;;;;;;42.65;26.25;;;;;;;4.72;100.00;98438.34;4994327;28;20103;-84
2023/10/19 04:23:46;;;;;;;43.75;25.70;;;;;;;4.65;100.00;98425.78;4994611;28;20026;-84
2023/10/19 04:26:12;;;;;;;42.08;26.88;;;;;;;4.55;100.00;98404.69;5011837;28;20094;-84
2023/10/19 04:28:49;;;;;;;49.42;28.38;;;;;;;4.75;100.00;98427.03;5011842;28;20054;-84
2023/10/19 04:31:15;;;;;;;40.90;25.38;;;;;;;4.82;100.00;98432.78;5012257;28;20109;-84
2023/10/19 04:33:47;;;;;;;42.05;25.38;;;;;;;4.78;100.00;98413.19;5012056;28;20053;-84
2023/10/19 04:36:14;;;;;;;38.78;25.30;;;;;;;4.78;100.00;98402.88;4993975;28;20044;-84
2023/10/19 04:38:39;;;;;;;46.65;28.55;;;;;;;4.82;100.00;98425.06;5011975;28;20057;-84
2023/10/19 04:41:09;;;;;;;39.42;25.40;;;;;;;4.89;100.00;98436.81;5011650;28;20481;-83
2023/10/19 04:43:39;;;;;;;44.42;28.58;;;;;;;4.60;100.00;98383.88;5011877;28;20404;-84
2023/10/19 04:46:12;;;;;;;40.17;26.50;;;;;;;4.72;100.00;98407.41;5011854;28;20030;-84
2023/10/19 04:48:41;;;;;;;43.38;27.73;;;;;;;4.88;100.00;98423.03;5011959;28;20041;-84
2023/10/19 04:51:09;;;;;;;43.03;27.48;;;;;;;4.97;100.00;98435.56;5011684;28;20373;-83
2023/10/19 04:53:34;;;;;;;44.08;28.55;;;;;;;4.71;100.00;98384.22;5011786;28;20026;-84
2023/10/19 04:56:00;;;;;;;46.22;26.60;;;;;;;4.55;100.00;98360.88;5011677;28;20041;-84
2023/10/19 04:58:28;;;;;;;48.78;29.60;;;;;;;4.66;100.00;98370.72;4994057;28;20118;-83
2023/10/19 05:00:53;;;;;;;41.85;27.38;;;;;;;4.81;100.00;98395.84;5014114;28;20057;-83
2023/10/19 05:03:18;;;;;;;43.28;27.35;;;;;;;4.82;100.00;98407.84;4997676;28;20084;-84
2023/10/19 05:05:44;;;;;;;46.75;29.02;;;;;;;4.79;100.00;98405.38;4997844;28;20026;-83
2023/10/19 05:08:10;;;;;;;56.83;36.05;;;;;;;4.86;100.00;98419.69;4997567;28;20538;-83
2023/10/19 05:10:35;;;;;;;44.95;28.02;;;;;;;4.71;100.00;98372.16;4997687;28;20034;-84
2023/10/19 05:13:00;;;;;;;44.55;27.15;;;;;;;4.63;100.00;98358.78;5015440;28;20053;-84
2023/10/19 05:15:26;;;;;;;44.78;28.95;;;;;;;4.63;100.00;98342.47;4997612;28;20120;-84
2023/10/19 05:17:51;;;;;;;43.05;26.48;;;;;;;4.66;100.00;98344.91;5015515;28;20026;-84
2023/10/19 05:20:16;;;;;;;45.97;28.02;;;;;;;4.86;100.00;98369.84;5014962;28;20177;-84
2023/10/19 05:22:42;;;;;;;44.03;27.88;;;;;;;4.81;100.00;98362.31;5015191;28;20033;-84
2023/10/19 05:25:07;;;;;;;44.15;27.42;;;;;;;4.66;100.00;98342.34;5014777;28;20054;-84
2023/10/19 05:27:33;;;;;;;49.97;27.70;;;;;;;4.70;100.00;98347.28;5015131;28;20081;-84
2023/10/19 05:30:00;;;;;;;42.95;26.83;;;;;;;4.74;100.00;98342.84;5015114;28;20026;-84
2023/10/19 05:32:25;;;;;;;38.05;25.25;;;;;;;4.88;100.00;98363.69;4997212;28;20354;-84
2023/10/19 05:34:50;;;;;;;39.05;26.55;;;;;;;4.71;100.00;98323.16;4997408;28;20048;-84
2023/10/19 05:37:17;;;;;;;38.72;24.88;;;;;;;4.67;100.00;98306.16;5014719;28;20037;-83
2023/10/19 05:39:44;;;;;;;43.70;26.75;;;;;;;4.99;100.00;98356.31;5014713;28;20026;-84
2023/10/19 05:42:09;;;;;;;45.22;28.60;;;;;;;4.78;100.00;98318.59;4996969;28;20120;-84
2023/10/19 05:44:34;;;;;;;44.33;26.40;;;;;;;4.89;100.00;98315.53;4997145;28;20580;-84
2023/10/19 05:47:00;;;;;;;40.25;25.88;;;;;;;4.77;100.00;98283.38;5014642;28;20030;-84
2023/10/19 05:49:25;;;;;;;40.20;26.13;;;;;;;5.20;100.00;98357.09;5014901;28;20033;-83
2023/10/19 05:51:51;;;;;;;45.33;25.77;;;;;;;5.07;100.00;98321.59;4997052;28;20034;-83
2023/10/19 05:54:16;;;;;;;39.55;24.65;;;;;;;5.20;100.00;98346.78;4996573;28;20029;-84
2023/10/19 05:56:42;;;;;;;39.97;25.05;;;;;;;5.18;100.00;98334.84;4997171;28;20044;-84
2023/10/19 05:59:09;;;;;;;47.78;25.77;;;;;;;5.06;100.00;98312.19;4996998;28;20026;-84
2023/10/19 06:01:35;;;;;;;38.20;23.45;;;;;;;5.34;100.00;98353.88;5014456;28;20029;-84
2023/10/19 06:04:00;;;;;;;38.88;24.55;;;;;;;5.28;100.00;98340.44;5014475;28;20076;-83
2023/10/19 06:06:26;;;;;;;36.78;23.30;;;;;;;5.37;100.00;98346.00;5014122;28;20569;-84
2023/10/19 06:08:53;;;;;;;37.45;23.33;;;;;;;5.30;100.00;98328.28;5014221;28;20036;-84
2023/10/19 06:11:19;;;;;;;35.00;23.73;;;;;;;5.34;100.00;98343.56;5013487;28;20187;-85
2023/10/19 06:13:44;;;;;;;39.72;24.40;;;;;;;5.21;100.00;98308.91;5014283;28;20062;-83
2023/10/19 06:16:09;;;;;;;34.95;22.85;;;;;;;5.40;100.00;98337.28;4996266;28;20512;-84
2023/10/19 06:18:35;;;;;;;34.78;23.25;;;;;;;5.34;100.00;98330.66;4996439;28;20041;-84
2023/10/19 06:21:00;;;;;;;41.95;23.33;;;;;;;5.25;100.00;98320.75;5013893;28;20036;-85
2023/10/19 06:23:25;;;;;;;33.75;21.13;;;;;;;5.54;100.00;98362.47;5014105;28;20045;-84
2023/10/19 06:25:54;;;;;;;33.97;22.65;;;;;;;5.33;100.00;98335.91;4996488;28;20547;-84
2023/10/19 06:28:19;;;;;;;38.63;23.63;;;;;;;5.33;100.00;98313.50;5013674;28;20103;-85
2023/10/19 06:30:47;;;;;;;36.58;22.98;;;;;;;5.03;100.00;98283.94;5014070;28;20055;-85
2023/10/19 06:33:13;;;;;;;35.38;22.13;;;;;;;5.40;100.00;98321.81;5013642;28;20057;-84
2023/10/19 06:35:40;;;;;;;35.70;22.70;;;;;;;5.49;99.95;98329.94;5013661;28;20029;-83
2023/10/19 06:38:06;;;;;;;40.60;21.80;;;;;;;5.20;99.52;98277.09;4996013;28;20026;-85
2023/10/19 06:40:34;;;;;;;35.92;22.17;;;;;;;5.57;99.73;98331.34;5013478;28;20022;-84
2023/10/19 06:43:02;;;;;;;34.00;22.25;;;;;;;5.58;99.75;98336.41;5013929;28;20034;-84
2023/10/19 06:45:29;;;;;;;36.45;23.15;;;;;;;5.69;99.65;98335.94;4995777;28;20030;-85
2023/10/19 06:47:55;;;;;;;38.33;21.55;;;;;;;5.56;99.87;98308.97;4996348;28;20022;-85
2023/10/19 06:50:22;;;;;;;31.63;21.30;;;;;;;5.81;99.76;98349.97;5013340;28;20052;-85
2023/10/19 06:52:47;;;;;;;32.65;21.60;;;;;;;5.78;99.37;98330.31;5013630;28;20025;-85
2023/10/19 06:55:13;;;;;;;34.10;22.23;;;;;;;5.72;99.35;98308.16;5013344;28;20036;-85
2023/10/19 06:57:48;;;;;;;38.85;22.15;;;;;;;5.62;99.30;98300.97;5013454;28;20400;-85
2023/10/19 07:00:21;;;;;;;32.78;21.50;;;;;;;5.88;99.51;98343.63;5013030;28;20023;-84
2023/10/19 07:02:51;;;;;;;35.20;21.17;;;;;;;5.66;99.77;98292.97;4995397;28;20030;-84
2023/10/19 07:05:29;;;;;;;34.97;22.25;;;;;;;5.78;99.73;98301.91;4995480;28;20029;-85
2023/10/19 07:07:56;;;;;;;32.75;20.38;;;;;;;6.02;100.00;98335.22;4995720;28;20029;-84
2023/10/19 07:10:22;;;;;;;36.88;21.10;;;;;;;5.85;99.75;98295.50;4995380;28;20113;-85
2023/10/19 07:12:51;;;;;;;32.78;21.33;;;;;;;5.92;99.95;98306.41;4971495;28;20141;-84
2023/10/19 07:15:22;;;;;;;31.60;22.15;;;;;;;6.05;100.00;98316.97;4953354;28;20039;-85
2023/10/19 07:17:52;;;;;;;35.22;21.55;;;;;;;6.20;100.00;98334.31;4968526;28;20096;-85
2023/10/19 07:20:38;;;;;;;34.45;22.67;;;;;;;6.15;100.00;98323.34;4970878;28;20321;-84
2023/10/19 07:25:59;;;;;;;36.97;22.23;;;;;;;6.19;100.00;98309.34;4951901;29;20035;-83
2023/10/19 07:28:27;;;;;;;30.73;21.35;;;;;;;6.22;100.00;98314.38;4935504;29;20051;-82
2023/10/19 07:30:55;;;;;;;32.65;21.67;;;;;;;6.30;100.00;98314.84;4952116;29;20526;-83
2023/10/19 07:33:23;;;;;;;31.42;21.98;;;;;;;6.31;100.00;98316.50;4951756;29;20112;-84
2023/10/19 07:35:58;;;;;;;37.90;22.40;;;;;;;6.41;100.00;98315.13;4935719;29;20442;-85
2023/10/19 07:38:25;;;;;;;33.55;20.65;;;;;;;6.43;100.00;98308.13;4935541;29;20493;-86
2023/10/19 07:40:53;;;;;;;31.88;20.58;;;;;;;6.09;100.00;98230.63;4951824;29;20037;-81
2023/10/19 07:43:20;;;;;;;36.72;24.38;;;;;;;6.50;100.00;98283.63;4935034;29;20142;-85
2023/10/19 07:45:46;;;;;;;40.00;23.35;;;;;;;6.54;100.00;98279.13;4935795;29;20056;-84
2023/10/19 07:48:13;;;;;;;32.55;22.08;;;;;;;6.70;100.00;98292.94;4951928;29;20455;-85
2023/10/19 07:50:43;;;;;;;33.15;21.10;;;;;;;6.80;100.00;98285.53;4951411;29;20407;-85
2023/10/19 07:53:09;;;;;;;31.15;21.02;;;;;;;6.73;100.00;98258.28;4951704;29;20435;-85
2023/10/19 07:55:35;;;;;;;36.63;21.77;;;;;;;6.90;100.00;98278.94;4951242;29;20059;-85
2023/10/19 07:58:03;;;;;;;32.65;21.88;;;;;;;6.83;100.00;98280.19;4951685;29;20572;-85
2023/10/19 08:00:29;;;;;;;36.33;21.65;;;;;;;6.56;100.00;98242.81;4950974;29;20113;-84
2023/10/19 08:02:55;;;;;;;33.42;22.77;;;;;;;6.74;100.00;98250.47;4986033;28;20038;-85
2023/10/19 08:05:21;;;;;;;31.05;21.70;;;;;;;6.78;100.00;98247.69;5011746;28;20029;-85
2023/10/19 08:07:47;;;;;;;30.13;21.40;;;;;;;6.61;100.00;98213.19;5011666;28;20030;-84
2023/10/19 08:10:15;;;;;;;32.97;22.27;;;;;;;6.71;100.00;98210.97;4994298;28;20038;-85
2023/10/19 08:12:41;;;;;;;31.73;20.65;;;;;;;7.00;100.00;98227.50;5011805;28;20029;-84
2023/10/19 08:15:11;;;;;;;34.03;21.55;;;;;;;7.02;100.00;98220.47;5012131;28;20392;-84
2023/10/19 08:17:40;;;;;;;33.83;22.15;;;;;;;7.17;100.00;98242.94;5012118;28;20042;-84
2023/10/19 08:20:15;;;;;;;34.22;22.23;;;;;;;6.99;100.00;98205.13;5018742;28;20155;-85
2023/10/19 08:22:46;;;;;;;29.98;21.20;;;;;;;7.04;100.00;98210.03;5000986;28;20041;-84
2023/10/19 08:25:14;;;;;;;35.90;23.03;;;;;;;7.14;100.00;98224.16;5002209;28;20026;-84
2023/10/19 08:27:49;;;;;;;33.20;22.20;;;;;;;7.07;100.00;98202.94;5007319;28;20630;-84
2023/10/19 08:30:18;;;;;;;33.63;20.52;;;;;;;7.11;100.00;98199.25;5031778;28;20021;-84
2023/10/19 08:32:47;;;;;;;33.95;21.77;;;;;;;7.20;100.00;98235.00;5013968;28;20033;-84
2023/10/19 08:35:14;;;;;;;33.58;21.77;;;;;;;6.98;100.00;98188.75;5033594;28;20362;-84
2023/10/19 08:37:39;;;;;;;32.55;20.45;;;;;;;7.16;100.00;98214.53;5035218;28;20029;-84
2023/10/19 08:40:07;;;;;;;31.60;21.58;;;;;;;6.98;100.00;98190.50;5029229;28;20084;-83
2023/10/19 08:42:34;;;;;;;28.77;20.05;;;;;;;7.15;100.00;98205.09;5006589;28;20021;-84
2023/10/19 08:44:59;;;;;;;34.85;21.38;;;;;;;7.38;100.00;98237.50;5024753;28;20074;-84
2023/10/19 08:47:25;;;;;;;30.90;21.77;;;;;;;7.35;100.00;98237.66;5015457;28;20050;-85
2023/10/19 08:49:53;;;;;;;33.40;20.45;;;;;;;7.09;100.00;98197.69;4998110;28;20486;-84
2023/10/19 08:52:24;;;;;;;32.30;20.77;;;;;;;7.12;100.00;98224.25;5019346;28;20036;-84
2023/10/19 08:54:49;;;;;;;38.20;24.63;;;;;;;7.31;100.00;98254.28;5023237;28;20036;-84
2023/10/19 08:57:15;;;;;;;36.17;23.98;;;;;;;7.28;100.00;98229.41;5024894;28;20029;-84
2023/10/19 08:59:40;;;;;;;34.55;23.65;;;;;;;7.22;100.00;98215.03;5008519;28;20099;-84
2023/10/19 09:02:06;;;;;;;37.03;24.05;;;;;;;7.22;100.00;98215.03;5030214;28;20036;-83
2023/10/19 09:04:32;;;;;;;30.02;21.63;;;;;;;7.39;100.00;98232.22;5026455;28;20079;-81
2023/10/19 09:06:58;;;;;;;31.58;22.52;;;;;;;7.27;100.00;98214.78;5034794;28;20092;-83
2023/10/19 09:09:25;;;;;;;40.10;22.92;;;;;;;7.38;100.00;98240.09;5034510;28;20041;-83
2023/10/19 09:11:54;;;;;;;33.15;23.40;;;;;;;7.21;100.00;98210.78;5034832;28;20083;-83
2023/10/19 09:14:33;;;;;;;33.55;23.35;;;;;;;7.11;100.00;98198.44;5016113;28;20033;-83
2023/10/19 09:17:00;;;;;;;32.20;22.63;;;;;;;7.21;100.00;98208.19;5012205;28;20112;-84
2023/10/19 09:19:56;;;;;;;38.95;24.38;;;;;;;7.39;100.00;98252.94;5016512;28;20033;-82
2023/10/19 09:22:24;;;;;;;37.22;23.70;;;;;;;7.34;100.00;98246.38;4930469;29;20047;-83
2023/10/19 09:24:51;;;;;;;35.67;24.33;;;;;;;7.20;100.00;98235.00;4934131;29;20039;-82
2023/10/19 09:27:20;;;;;;;34.60;24.88;;;;;;;7.12;100.00;98221.66;4934256;29;20048;-83
2023/10/19 09:29:46;;;;;;;33.75;24.25;;;;;;;7.04;100.00;98228.16;4934612;29;20472;-81
2023/10/19 09:32:15;;;;;;;44.78;33.47;;;;;;;7.13;100.00;98217.31;4934434;29;20043;-82
2023/10/19 09:34:43;;;;;;;40.65;26.42;;;;;;;7.23;100.00;98229.66;4933930;29;20066;-82
2023/10/19 09:37:09;;;;;;;38.15;26.40;;;;;;;7.30;100.00;98231.91;4918119;29;20439;-81
2023/10/19 09:39:35;;;;;;;58.58;39.00;;;;;;;7.48;100.00;98249.00;4934106;29;20039;-82
2023/10/19 09:42:05;;;;;;;39.05;28.08;;;;;;;7.57;100.00;98250.25;4934182;29;20036;-85
2023/10/19 09:44:40;;;;;;;37.50;25.77;;;;;;;7.45;100.00;98218.91;4917862;29;20122;-85
2023/10/19 09:47:12;;;;;;;39.50;26.73;;;;;;;7.68;100.00;98253.91;4933201;29;20047;-85
2023/10/19 09:49:39;;;;;;;36.67;26.90;;;;;;;7.55;100.00;98221.84;4917595;29;20463;-84
2023/10/19 09:52:05;;;;;;;43.25;26.98;;;;;;;7.61;100.00;98221.47;4933972;29;20063;-85
2023/10/19 09:54:48;;;;;;;37.30;25.65;;;;;;;7.38;100.00;98199.47;4917734;29;20276;-84
2023/10/19 09:57:18;;;;;;;39.22;26.63;;;;;;;7.40;100.00;98196.78;4934024;29;20091;-84
2023/10/19 09:59:46;;;;;;;40.53;28.35;;;;;;;7.32;100.00;98180.84;5006505;28;20044;-84
2023/10/19 10:02:17;;;;;;;42.15;26.77;;;;;;;7.53;100.00;98213.31;5013523;28;20516;-84
2023/10/19 10:04:45;;;;;;;38.50;26.85;;;;;;;7.38;100.00;98207.25;4995929;28;20030;-84
2023/10/19 10:07:11;;;;;;;45.22;31.08;;;;;;;7.32;100.00;98198.97;4996202;28;20117;-84
2023/10/19 10:09:40;;;;;;;40.22;28.65;;;;;;;7.27;100.00;98190.66;4995866;28;20022;-84
2023/10/19 10:12:26;;;;;;;53.15;37.03;;;;;;;7.20;100.00;98159.06;4995857;28;20652;-84
2023/10/19 10:14:55;;;;;;;41.20;29.65;;;;;;;7.30;100.00;98170.59;5012193;28;20036;-84
2023/10/19 10:17:22;;;;;;;44.63;30.45;;;;;;;6.96;100.00;98112.13;4995744;28;20038;-85
2023/10/19 10:19:48;;;;;;;40.40;28.77;;;;;;;7.19;100.00;98147.06;5013585;28;20120;-84
2023/10/19 10:22:18;;;;;;;44.05;31.15;;;;;;;7.33;100.00;98157.47;4995596;28;20080;-84
2023/10/19 10:24:46;;;;;;;41.90;28.85;;;;;;;6.92;100.00;98101.09;5012905;28;20025;-84
2023/10/19 10:27:13;;;;;;;49.03;31.08;;;;;;;7.18;100.00;98156.56;5013055;28;20046;-84
2023/10/19 10:30:05;;;;;;;46.42;31.85;;;;;;;7.38;100.00;98167.56;5013195;28;20113;-84
2023/10/19 10:32:53;;;;;;;45.38;31.23;;;;;;;7.24;100.00;98145.03;5015095;28;20436;-84
2023/10/19 10:35:37;;;;;;;47.92;32.10;;;;;;;7.58;100.00;98182.78;5032869;28;20388;-84
2023/10/19 10:38:09;;;;;;;42.58;31.23;;;;;;;7.44;100.00;98136.94;5033036;28;20032;-84
2023/10/19 10:40:49;;;;;;;47.78;33.17;;;;;;;7.57;100.00;98168.16;5014807;28;20033;-84
2023/10/19 10:43:16;;;;;;;46.72;31.10;;;;;;;7.49;100.00;98132.31;5014853;28;20036;-84
2023/10/19 10:45:41;;;;;;;47.90;32.45;;;;;;;7.67;100.00;98143.41;5032397;28;20717;-84
2023/10/19 10:48:19;;;;;;;43.58;31.33;;;;;;;7.41;100.00;98087.91;5014861;28;20299;-84
2023/10/19 10:50:46;;;;;;;47.47;32.85;;;;;;;7.64;100.00;98122.84;5014541;28;20056;-84
2023/10/19 10:53:13;;;;;;;44.63;32.65;;;;;;;7.51;100.00;98096.00;5032505;28;20116;-84
2023/10/19 10:55:39;;;;;;;44.90;31.85;;;;;;;7.52;100.00;98097.66;5032365;28;20025;-84
2023/10/19 10:58:05;;;;;;;55.80;34.53;;;;;;;7.69;100.00;98125.16;5014416;28;20021;-84
2023/10/19 11:00:32;;;;;;;47.08;33.70;;;;;;;7.70;100.00;98106.09;5031832;28;20033;-84
2023/10/19 11:03:00;;;;;;;49.47;36.90;;;;;;;7.64;100.00;98086.56;5032249;28;20090;-84
2023/10/19 11:05:26;;;;;;;54.65;38.33;;;;;;;7.66;100.00;98089.88;5014282;28;20029;-84
2023/10/19 11:08:07;;;;;;;46.50;33.88;;;;;;;7.80;100.00;98104.63;5014392;28;20040;-84
2023/10/19 11:10:34;;;;;;;46.70;31.90;;;;;;;7.79;100.00;98100.34;4996616;28;20046;-84
2023/10/19 11:13:03;;;;;;;45.28;33.53;;;;;;;7.63;100.00;98078.91;5032095;28;20075;-84
2023/10/19 11:15:29;;;;;;;43.53;32.00;;;;;;;7.64;100.00;98071.00;5014425;28;20116;-83
2023/10/19 11:17:54;;;;;;;49.42;35.22;;;;;;;7.74;100.00;98092.03;5032066;28;20100;-83
2023/10/19 11:20:24;;;;;;;51.88;36.65;;;;;;;7.48;100.00;98062.50;5032095;28;20033;-83
2023/10/19 11:22:51;;;;;;;50.88;36.05;;;;;;;7.37;100.00;98018.25;5014192;28;20076;-83
2023/10/19 11:25:18;;;;;;;47.75;34.20;;;;;;;7.58;100.00;98048.03;5014308;28;20037;-83
2023/10/19 11:27:43;;;;;;;51.58;36.25;;;;;;;7.82;100.00;98073.41;5031740;28;20077;-82
2023/10/19 11:30:11;;;;;;;45.97;33.63;;;;;;;7.84;100.00;98058.63;5032126;28;20072;-83
2023/10/19 11:32:40;;;;;;;45.67;33.58;;;;;;;7.77;100.00;98067.69;5032017;28;20045;-82
2023/10/19 11:35:07;;;;;;;47.88;33.00;;;;;;;7.58;100.00;98035.09;5031868;28;20431;-84
2023/10/19 11:37:49;;;;;;;47.30;34.75;;;;;;;7.75;100.00;98054.81;5031536;28;20029;-82
2023/10/19 11:40:15;;;;;;;55.40;35.13;;;;;;;7.58;100.00;98039.44;5031900;28;20044;-82
2023/10/19 11:42:40;;;;;;;51.30;35.40;;;;;;;7.63;100.00;98046.03;5013781;28;20079;-82
2023/10/19 11:45:06;;;;;;;47.28;34.08;;;;;;;7.69;100.00;98024.91;5010507;28;20026;-82
2023/10/19 11:47:32;;;;;;;50.65;36.22;;;;;;;7.72;100.00;98048.06;4994133;28;20473;-83
2023/10/19 11:49:57;;;;;;;50.58;36.35;;;;;;;7.55;100.00;98006.81;5012253;28;20045;-82